sensor_id;sensor_type;location;lat;lon;timestamp;temperature;humidity
75262;DHT22;63859;51.064;4.580;2023-11-22T00:00:09;5.90;99.90
75262;DHT22;63859;51.064;4.580;2023-11-22T00:02:38;5.90;99.90
75262;DHT22;63859;51.064;4.580;2023-11-22T00:05:04;5.90;99.90
75262;DHT22;63859;51.064;4.580;2023-11-22T00:07:31;5.90;99.90
75262;DHT22;63859;51.064;4.580;2023-11-22T00:09:57;5.90;99.90
75262;DHT22;63859;51.064;4.580;2023-11-22T00:12:23;5.90;99.90
75262;DHT22;63859;51.064;4.580;2023-11-22T00:14:50;5.80;99.90
75262;DHT22;63859;51.064;4.580;2023-11-22T00:17:16;5.80;99.90
75262;DHT22;63859;51.064;4.580;2023-11-22T00:19:45;5.80;99.90
75262;DHT22;63859;51.064;4.580;2023-11-22T00:22:11;5.80;99.90
75262;DHT22;63859;51.064;4.580;2023-11-22T00:24:40;5.70;99.90
75262;DHT22;63859;51.064;4.580;2023-11-22T00:27:06;5.70;99.90
75262;DHT22;63859;51.064;4.580;2023-11-22T00:29:32;5.70;99.90
75262;DHT22;63859;51.064;4.580;2023-11-22T00:31:58;5.60;99.90
75262;DHT22;63859;51.064;4.580;2023-11-22T00:34:24;5.60;99.90
75262;DHT22;63859;51.064;4.580;2023-11-22T00:36:50;5.60;99.90
75262;DHT22;63859;51.064;4.580;2023-11-22T00:39:16;5.60;99.90
75262;DHT22;63859;51.064;4.580;2023-11-22T00:41:42;5.60;99.90
75262;DHT22;63859;51.064;4.580;2023-11-22T00:44:09;5.60;99.90
75262;DHT22;63859;51.064;4.580;2023-11-22T00:46:35;5.50;99.90
75262;DHT22;63859;51.064;4.580;2023-11-22T00:49:03;5.60;99.90
75262;DHT22;63859;51.064;4.580;2023-11-22T00:51:30;5.50;99.90
75262;DHT22;63859;51.064;4.580;2023-11-22T00:53:57;5.50;99.90
75262;DHT22;63859;51.064;4.580;2023-11-22T00:56:23;5.50;99.90
75262;DHT22;63859;51.064;4.580;2023-11-22T00:58:48;5.50;99.90
75262;DHT22;63859;51.064;4.580;2023-11-22T01:01:16;5.40;99.90
75262;DHT22;63859;51.064;4.580;2023-11-22T01:03:42;5.40;99.90
75262;DHT22;63859;51.064;4.580;2023-11-22T01:06:07;5.40;99.90
75262;DHT22;63859;51.064;4.580;2023-11-22T01:08:33;5.40;99.90
75262;DHT22;63859;51.064;4.580;2023-11-22T01:10:59;5.40;99.90
75262;DHT22;63859;51.064;4.580;2023-11-22T01:13:25;5.30;99.90
75262;DHT22;63859;51.064;4.580;2023-11-22T01:15:51;5.30;99.90
75262;DHT22;63859;51.064;4.580;2023-11-22T01:18:16;5.30;99.90
75262;DHT22;63859;51.064;4.580;2023-11-22T01:20:42;5.30;99.90
75262;DHT22;63859;51.064;4.580;2023-11-22T01:23:08;5.30;99.90
75262;DHT22;63859;51.064;4.580;2023-11-22T01:25:33;5.20;99.90
75262;DHT22;63859;51.064;4.580;2023-11-22T01:27:59;5.20;99.90
75262;DHT22;63859;51.064;4.580;2023-11-22T01:30:26;5.20;99.90
75262;DHT22;63859;51.064;4.580;2023-11-22T01:32:53;5.20;99.90
75262;DHT22;63859;51.064;4.580;2023-11-22T01:35:20;5.10;99.90
75262;DHT22;63859;51.064;4.580;2023-11-22T01:37:46;5.10;99.90
75262;DHT22;63859;51.064;4.580;2023-11-22T01:40:12;5.10;99.90
75262;DHT22;63859;51.064;4.580;2023-11-22T01:42:38;5.10;99.90
75262;DHT22;63859;51.064;4.580;2023-11-22T01:45:07;5.10;99.90
75262;DHT22;63859;51.064;4.580;2023-11-22T01:47:34;5.10;99.90
75262;DHT22;63859;51.064;4.580;2023-11-22T01:50:00;5.10;99.90
75262;DHT22;63859;51.064;4.580;2023-11-22T01:52:26;5.10;99.90
75262;DHT22;63859;51.064;4.580;2023-11-22T01:54:51;5.10;99.90
75262;DHT22;63859;51.064;4.580;2023-11-22T01:57:17;5.00;99.90
75262;DHT22;63859;51.064;4.580;2023-11-22T01:59:45;5.00;99.90
75262;DHT22;63859;51.064;4.580;2023-11-22T02:02:11;4.90;99.90
75262;DHT22;63859;51.064;4.580;2023-11-22T02:04:37;4.90;99.90
75262;DHT22;63859;51.064;4.580;2023-11-22T02:07:02;4.90;99.90
75262;DHT22;63859;51.064;4.580;2023-11-22T02:09:28;5.00;99.90
75262;DHT22;63859;51.064;4.580;2023-11-22T02:11:53;5.00;99.90
75262;DHT22;63859;51.064;4.580;2023-11-22T02:14:19;5.00;99.90
75262;DHT22;63859;51.064;4.580;2023-11-22T02:16:45;5.00;99.90
75262;DHT22;63859;51.064;4.580;2023-11-22T02:19:19;5.00;99.90
75262;DHT22;63859;51.064;4.580;2023-11-22T02:21:45;5.00;99.90
75262;DHT22;63859;51.064;4.580;2023-11-22T02:24:11;5.00;99.90
75262;DHT22;63859;51.064;4.580;2023-11-22T02:26:37;5.00;99.90
75262;DHT22;63859;51.064;4.580;2023-11-22T02:29:03;5.00;99.90
75262;DHT22;63859;51.064;4.580;2023-11-22T02:31:30;5.00;99.90
75262;DHT22;63859;51.064;4.580;2023-11-22T02:33:56;5.00;99.90
75262;DHT22;63859;51.064;4.580;2023-11-22T02:36:25;5.00;99.90
75262;DHT22;63859;51.064;4.580;2023-11-22T02:38:50;5.00;99.90
75262;DHT22;63859;51.064;4.580;2023-11-22T02:41:16;4.90;99.90
75262;DHT22;63859;51.064;4.580;2023-11-22T02:43:42;4.90;99.90
75262;DHT22;63859;51.064;4.580;2023-11-22T02:46:11;4.80;99.90
75262;DHT22;63859;51.064;4.580;2023-11-22T02:48:36;4.80;99.90
75262;DHT22;63859;51.064;4.580;2023-11-22T02:51:03;4.80;99.90
75262;DHT22;63859;51.064;4.580;2023-11-22T02:53:28;4.80;99.90
75262;DHT22;63859;51.064;4.580;2023-11-22T02:55:58;4.80;99.90
75262;DHT22;63859;51.064;4.580;2023-11-22T02:58:25;4.80;99.90
75262;DHT22;63859;51.064;4.580;2023-11-22T03:00:51;4.80;99.90
75262;DHT22;63859;51.064;4.580;2023-11-22T03:03:20;4.80;99.90
75262;DHT22;63859;51.064;4.580;2023-11-22T03:05:45;4.80;99.90
75262;DHT22;63859;51.064;4.580;2023-11-22T03:08:11;4.80;99.90
75262;DHT22;63859;51.064;4.580;2023-11-22T03:10:38;4.80;99.90
75262;DHT22;63859;51.064;4.580;2023-11-22T03:13:04;4.80;99.90
75262;DHT22;63859;51.064;4.580;2023-11-22T03:15:29;4.70;99.90
75262;DHT22;63859;51.064;4.580;2023-11-22T03:17:55;4.80;99.90
75262;DHT22;63859;51.064;4.580;2023-11-22T03:20:21;4.80;99.90
75262;DHT22;63859;51.064;4.580;2023-11-22T03:22:47;4.80;99.90
75262;DHT22;63859;51.064;4.580;2023-11-22T03:25:15;4.70;99.90
75262;DHT22;63859;51.064;4.580;2023-11-22T03:27:41;4.70;99.90
75262;DHT22;63859;51.064;4.580;2023-11-22T03:30:07;4.70;99.90
75262;DHT22;63859;51.064;4.580;2023-11-22T03:32:39;4.60;99.90
75262;DHT22;63859;51.064;4.580;2023-11-22T03:35:06;4.60;99.90
75262;DHT22;63859;51.064;4.580;2023-11-22T03:37:33;4.50;99.90
75262;DHT22;63859;51.064;4.580;2023-11-22T03:39:58;4.50;99.90
75262;DHT22;63859;51.064;4.580;2023-11-22T03:42:24;4.40;99.90
75262;DHT22;63859;51.064;4.580;2023-11-22T03:44:50;4.40;99.90
75262;DHT22;63859;51.064;4.580;2023-11-22T03:47:17;4.40;99.90
75262;DHT22;63859;51.064;4.580;2023-11-22T03:49:42;4.50;99.90
75262;DHT22;63859;51.064;4.580;2023-11-22T03:52:10;4.40;99.90
75262;DHT22;63859;51.064;4.580;2023-11-22T03:54:36;4.30;99.90
75262;DHT22;63859;51.064;4.580;2023-11-22T03:57:03;4.30;99.90
75262;DHT22;63859;51.064;4.580;2023-11-22T03:59:29;4.30;99.90
75262;DHT22;63859;51.064;4.580;2023-11-22T04:01:55;4.30;99.90
75262;DHT22;63859;51.064;4.580;2023-11-22T04:04:21;4.30;99.90
75262;DHT22;63859;51.064;4.580;2023-11-22T04:06:46;4.20;99.90
75262;DHT22;63859;51.064;4.580;2023-11-22T04:09:12;4.30;99.90
75262;DHT22;63859;51.064;4.580;2023-11-22T04:11:38;4.30;99.90
75262;DHT22;63859;51.064;4.580;2023-11-22T04:14:04;4.20;99.90
75262;DHT22;63859;51.064;4.580;2023-11-22T04:16:30;4.20;99.90
75262;DHT22;63859;51.064;4.580;2023-11-22T04:18:55;4.20;99.90
75262;DHT22;63859;51.064;4.580;2023-11-22T04:21:21;4.20;99.90
75262;DHT22;63859;51.064;4.580;2023-11-22T04:23:46;4.20;99.90
75262;DHT22;63859;51.064;4.580;2023-11-22T04:26:13;4.10;99.90
75262;DHT22;63859;51.064;4.580;2023-11-22T04:28:39;4.10;99.90
75262;DHT22;63859;51.064;4.580;2023-11-22T04:31:05;4.10;99.90
75262;DHT22;63859;51.064;4.580;2023-11-22T04:33:30;4.10;99.90
75262;DHT22;63859;51.064;4.580;2023-11-22T04:35:56;4.10;99.90
75262;DHT22;63859;51.064;4.580;2023-11-22T04:38:22;4.00;99.90
75262;DHT22;63859;51.064;4.580;2023-11-22T04:40:47;4.00;99.90
75262;DHT22;63859;51.064;4.580;2023-11-22T04:43:13;4.00;99.90
75262;DHT22;63859;51.064;4.580;2023-11-22T04:45:39;4.00;99.90
75262;DHT22;63859;51.064;4.580;2023-11-22T04:48:05;4.00;99.90
75262;DHT22;63859;51.064;4.580;2023-11-22T04:50:32;4.00;99.90
75262;DHT22;63859;51.064;4.580;2023-11-22T04:52:58;4.00;99.90
75262;DHT22;63859;51.064;4.580;2023-11-22T04:55:23;4.00;99.90
75262;DHT22;63859;51.064;4.580;2023-11-22T04:57:49;4.00;99.90
75262;DHT22;63859;51.064;4.580;2023-11-22T05:00:15;4.00;99.90
75262;DHT22;63859;51.064;4.580;2023-11-22T05:02:42;4.00;99.90
75262;DHT22;63859;51.064;4.580;2023-11-22T05:05:08;4.10;99.90
75262;DHT22;63859;51.064;4.580;2023-11-22T05:07:37;4.10;99.90
75262;DHT22;63859;51.064;4.580;2023-11-22T05:10:04;4.10;99.90
75262;DHT22;63859;51.064;4.580;2023-11-22T05:12:31;4.10;99.90
75262;DHT22;63859;51.064;4.580;2023-11-22T05:14:57;4.00;99.90
75262;DHT22;63859;51.064;4.580;2023-11-22T05:17:22;4.10;99.90
75262;DHT22;63859;51.064;4.580;2023-11-22T05:19:49;4.10;99.90
75262;DHT22;63859;51.064;4.580;2023-11-22T05:22:15;4.10;99.90
75262;DHT22;63859;51.064;4.580;2023-11-22T05:24:40;4.20;99.90
75262;DHT22;63859;51.064;4.580;2023-11-22T05:27:07;4.20;99.90
75262;DHT22;63859;51.064;4.580;2023-11-22T05:29:33;4.20;99.90
75262;DHT22;63859;51.064;4.580;2023-11-22T05:31:59;4.20;99.90
75262;DHT22;63859;51.064;4.580;2023-11-22T05:34:25;4.20;99.90
75262;DHT22;63859;51.064;4.580;2023-11-22T05:36:52;4.20;99.90
75262;DHT22;63859;51.064;4.580;2023-11-22T05:39:17;4.20;99.90
75262;DHT22;63859;51.064;4.580;2023-11-22T05:41:43;4.20;99.90
75262;DHT22;63859;51.064;4.580;2023-11-22T05:44:09;4.20;99.90
75262;DHT22;63859;51.064;4.580;2023-11-22T05:46:35;4.20;99.90
75262;DHT22;63859;51.064;4.580;2023-11-22T05:49:00;4.30;99.90
75262;DHT22;63859;51.064;4.580;2023-11-22T05:51:26;4.30;99.90
75262;DHT22;63859;51.064;4.580;2023-11-22T05:53:52;4.30;99.90
75262;DHT22;63859;51.064;4.580;2023-11-22T05:56:17;4.30;99.90
75262;DHT22;63859;51.064;4.580;2023-11-22T05:58:44;4.40;99.90
75262;DHT22;63859;51.064;4.580;2023-11-22T06:01:10;4.40;99.90
75262;DHT22;63859;51.064;4.580;2023-11-22T06:03:37;4.40;99.90
75262;DHT22;63859;51.064;4.580;2023-11-22T06:06:04;4.40;99.90
75262;DHT22;63859;51.064;4.580;2023-11-22T06:08:30;4.50;99.90
75262;DHT22;63859;51.064;4.580;2023-11-22T06:10:56;4.40;99.90
75262;DHT22;63859;51.064;4.580;2023-11-22T06:13:22;4.30;99.90
75262;DHT22;63859;51.064;4.580;2023-11-22T06:15:48;4.30;99.90
75262;DHT22;63859;51.064;4.580;2023-11-22T06:18:14;4.30;99.90
75262;DHT22;63859;51.064;4.580;2023-11-22T06:20:41;4.30;99.90
75262;DHT22;63859;51.064;4.580;2023-11-22T06:23:06;4.30;99.90
75262;DHT22;63859;51.064;4.580;2023-11-22T06:25:32;4.40;99.90
75262;DHT22;63859;51.064;4.580;2023-11-22T06:27:58;4.40;99.90
75262;DHT22;63859;51.064;4.580;2023-11-22T06:30:24;4.30;99.90
75262;DHT22;63859;51.064;4.580;2023-11-22T06:32:51;4.30;99.90
75262;DHT22;63859;51.064;4.580;2023-11-22T06:35:16;4.40;99.90
75262;DHT22;63859;51.064;4.580;2023-11-22T06:37:43;4.40;99.90
75262;DHT22;63859;51.064;4.580;2023-11-22T06:40:12;4.40;99.90
75262;DHT22;63859;51.064;4.580;2023-11-22T06:42:42;4.40;99.90
75262;DHT22;63859;51.064;4.580;2023-11-22T06:45:08;4.40;99.90
75262;DHT22;63859;51.064;4.580;2023-11-22T06:47:38;4.30;99.90
75262;DHT22;63859;51.064;4.580;2023-11-22T06:50:04;4.30;99.90
75262;DHT22;63859;51.064;4.580;2023-11-22T06:52:35;4.40;99.90
75262;DHT22;63859;51.064;4.580;2023-11-22T06:55:01;4.40;99.90
75262;DHT22;63859;51.064;4.580;2023-11-22T06:57:27;4.40;99.90
75262;DHT22;63859;51.064;4.580;2023-11-22T06:59:55;4.40;99.90
75262;DHT22;63859;51.064;4.580;2023-11-22T07:02:21;4.40;99.90
75262;DHT22;63859;51.064;4.580;2023-11-22T07:04:46;4.40;99.90
75262;DHT22;63859;51.064;4.580;2023-11-22T07:07:12;4.40;99.90
75262;DHT22;63859;51.064;4.580;2023-11-22T07:09:42;4.40;99.90
75262;DHT22;63859;51.064;4.580;2023-11-22T07:12:08;4.40;99.90
75262;DHT22;63859;51.064;4.580;2023-11-22T07:14:34;4.50;99.90
75262;DHT22;63859;51.064;4.580;2023-11-22T07:16:59;4.40;99.90
75262;DHT22;63859;51.064;4.580;2023-11-22T07:19:25;4.50;99.90
75262;DHT22;63859;51.064;4.580;2023-11-22T07:21:51;4.40;99.90
75262;DHT22;63859;51.064;4.580;2023-11-22T07:24:17;4.40;99.90
75262;DHT22;63859;51.064;4.580;2023-11-22T07:26:44;4.40;99.90
75262;DHT22;63859;51.064;4.580;2023-11-22T07:29:10;4.50;99.90
75262;DHT22;63859;51.064;4.580;2023-11-22T07:31:37;4.50;99.90
75262;DHT22;63859;51.064;4.580;2023-11-22T07:34:03;4.50;99.90
75262;DHT22;63859;51.064;4.580;2023-11-22T07:36:29;4.50;99.90
75262;DHT22;63859;51.064;4.580;2023-11-22T07:38:56;4.60;99.90
75262;DHT22;63859;51.064;4.580;2023-11-22T07:41:22;4.60;99.90
75262;DHT22;63859;51.064;4.580;2023-11-22T07:43:48;4.60;99.90
75262;DHT22;63859;51.064;4.580;2023-11-22T07:46:15;4.50;99.90
75262;DHT22;63859;51.064;4.580;2023-11-22T07:48:42;4.60;99.90
75262;DHT22;63859;51.064;4.580;2023-11-22T07:51:08;4.60;99.90
75262;DHT22;63859;51.064;4.580;2023-11-22T07:53:35;4.60;99.90
75262;DHT22;63859;51.064;4.580;2023-11-22T07:56:02;4.60;99.90
75262;DHT22;63859;51.064;4.580;2023-11-22T07:58:31;4.60;99.90
75262;DHT22;63859;51.064;4.580;2023-11-22T08:01:00;4.60;99.90
75262;DHT22;63859;51.064;4.580;2023-11-22T08:03:29;4.60;99.90
75262;DHT22;63859;51.064;4.580;2023-11-22T08:05:55;4.60;99.90
75262;DHT22;63859;51.064;4.580;2023-11-22T08:08:24;4.70;99.90
75262;DHT22;63859;51.064;4.580;2023-11-22T08:10:50;4.60;99.90
75262;DHT22;63859;51.064;4.580;2023-11-22T08:13:19;4.60;99.90
75262;DHT22;63859;51.064;4.580;2023-11-22T08:15:48;4.50;99.90
75262;DHT22;63859;51.064;4.580;2023-11-22T08:18:14;4.50;99.90
75262;DHT22;63859;51.064;4.580;2023-11-22T08:20:42;4.60;99.90
75262;DHT22;63859;51.064;4.580;2023-11-22T08:23:09;4.60;99.90
75262;DHT22;63859;51.064;4.580;2023-11-22T08:25:35;4.60;99.90
75262;DHT22;63859;51.064;4.580;2023-11-22T08:28:00;4.60;99.90
75262;DHT22;63859;51.064;4.580;2023-11-22T08:30:26;4.70;99.90
75262;DHT22;63859;51.064;4.580;2023-11-22T08:32:53;4.80;99.90
75262;DHT22;63859;51.064;4.580;2023-11-22T08:35:20;4.80;99.90
75262;DHT22;63859;51.064;4.580;2023-11-22T08:37:49;4.90;99.90
75262;DHT22;63859;51.064;4.580;2023-11-22T08:40:16;4.90;99.90
75262;DHT22;63859;51.064;4.580;2023-11-22T08:42:46;4.90;99.90
75262;DHT22;63859;51.064;4.580;2023-11-22T08:45:11;4.80;99.90
75262;DHT22;63859;51.064;4.580;2023-11-22T08:47:39;4.80;99.90
75262;DHT22;63859;51.064;4.580;2023-11-22T08:50:08;4.80;99.90
75262;DHT22;63859;51.064;4.580;2023-11-22T08:52:38;4.80;99.90
75262;DHT22;63859;51.064;4.580;2023-11-22T08:55:07;4.90;99.90
75262;DHT22;63859;51.064;4.580;2023-11-22T08:57:36;4.70;99.90
75262;DHT22;63859;51.064;4.580;2023-11-22T09:00:03;4.70;99.90
75262;DHT22;63859;51.064;4.580;2023-11-22T09:02:33;4.70;99.90
75262;DHT22;63859;51.064;4.580;2023-11-22T09:04:58;4.80;99.90
75262;DHT22;63859;51.064;4.580;2023-11-22T09:07:24;4.80;99.90
75262;DHT22;63859;51.064;4.580;2023-11-22T09:09:50;4.80;99.90
75262;DHT22;63859;51.064;4.580;2023-11-22T09:12:17;4.80;99.90
75262;DHT22;63859;51.064;4.580;2023-11-22T09:14:45;4.80;99.90
75262;DHT22;63859;51.064;4.580;2023-11-22T09:17:11;4.70;99.90
75262;DHT22;63859;51.064;4.580;2023-11-22T09:19:39;4.80;99.90
75262;DHT22;63859;51.064;4.580;2023-11-22T09:22:05;4.80;99.90
75262;DHT22;63859;51.064;4.580;2023-11-22T09:24:34;4.80;99.90
75262;DHT22;63859;51.064;4.580;2023-11-22T09:27:03;4.80;99.90
75262;DHT22;63859;51.064;4.580;2023-11-22T09:29:31;4.90;99.90
75262;DHT22;63859;51.064;4.580;2023-11-22T09:31:59;4.80;99.90
75262;DHT22;63859;51.064;4.580;2023-11-22T09:34:26;4.80;99.90
75262;DHT22;63859;51.064;4.580;2023-11-22T09:36:52;4.80;99.90
75262;DHT22;63859;51.064;4.580;2023-11-22T09:39:18;4.90;99.90
75262;DHT22;63859;51.064;4.580;2023-11-22T09:41:47;5.00;99.90
75262;DHT22;63859;51.064;4.580;2023-11-22T09:44:14;5.10;99.90
75262;DHT22;63859;51.064;4.580;2023-11-22T09:46:40;5.10;99.90
75262;DHT22;63859;51.064;4.580;2023-11-22T09:49:08;5.10;99.90
75262;DHT22;63859;51.064;4.580;2023-11-22T09:51:37;5.00;99.90
75262;DHT22;63859;51.064;4.580;2023-11-22T09:54:07;5.00;99.90
75262;DHT22;63859;51.064;4.580;2023-11-22T09:56:37;5.00;99.90
75262;DHT22;63859;51.064;4.580;2023-11-22T09:59:04;5.00;99.90
75262;DHT22;63859;51.064;4.580;2023-11-22T10:01:32;5.00;99.90
75262;DHT22;63859;51.064;4.580;2023-11-22T10:04:02;5.00;99.90
75262;DHT22;63859;51.064;4.580;2023-11-22T10:06:28;5.00;99.90
75262;DHT22;63859;51.064;4.580;2023-11-22T10:08:59;5.00;99.90
75262;DHT22;63859;51.064;4.580;2023-11-22T10:11:25;5.00;99.90
75262;DHT22;63859;51.064;4.580;2023-11-22T10:13:51;5.00;99.90
75262;DHT22;63859;51.064;4.580;2023-11-22T10:16:18;5.00;99.90
75262;DHT22;63859;51.064;4.580;2023-11-22T10:18:46;5.00;99.90
75262;DHT22;63859;51.064;4.580;2023-11-22T10:21:23;5.00;99.90
75262;DHT22;63859;51.064;4.580;2023-11-22T10:23:53;5.00;99.90
75262;DHT22;63859;51.064;4.580;2023-11-22T10:26:19;5.00;99.90
75262;DHT22;63859;51.064;4.580;2023-11-22T10:28:45;4.90;99.90
75262;DHT22;63859;51.064;4.580;2023-11-22T10:31:11;5.00;99.90
75262;DHT22;63859;51.064;4.580;2023-11-22T10:33:40;5.00;99.90
75262;DHT22;63859;51.064;4.580;2023-11-22T10:36:09;5.10;99.90
75262;DHT22;63859;51.064;4.580;2023-11-22T10:38:35;5.10;99.90
75262;DHT22;63859;51.064;4.580;2023-11-22T10:41:10;5.10;99.90
75262;DHT22;63859;51.064;4.580;2023-11-22T10:43:36;5.10;99.90
75262;DHT22;63859;51.064;4.580;2023-11-22T10:46:05;5.20;99.90
75262;DHT22;63859;51.064;4.580;2023-11-22T10:48:32;5.20;99.90
75262;DHT22;63859;51.064;4.580;2023-11-22T10:51:03;5.20;99.90
75262;DHT22;63859;51.064;4.580;2023-11-22T10:53:36;5.20;99.90
75262;DHT22;63859;51.064;4.580;2023-11-22T10:58:43;5.30;99.90
75262;DHT22;63859;51.064;4.580;2023-11-22T11:01:11;5.30;99.90
75262;DHT22;63859;51.064;4.580;2023-11-22T11:03:40;5.30;99.90
75262;DHT22;63859;51.064;4.580;2023-11-22T11:06:10;5.30;99.90
75262;DHT22;63859;51.064;4.580;2023-11-22T11:08:39;5.30;99.90
75262;DHT22;63859;51.064;4.580;2023-11-22T11:11:05;5.30;99.90
75262;DHT22;63859;51.064;4.580;2023-11-22T11:13:31;5.40;99.90
75262;DHT22;63859;51.064;4.580;2023-11-22T11:15:58;5.40;99.90
75262;DHT22;63859;51.064;4.580;2023-11-22T11:18:25;5.50;99.90
75262;DHT22;63859;51.064;4.580;2023-11-22T11:20:58;5.50;99.90
75262;DHT22;63859;51.064;4.580;2023-11-22T11:23:28;5.50;99.90
75262;DHT22;63859;51.064;4.580;2023-11-22T11:25:58;5.60;99.90
75262;DHT22;63859;51.064;4.580;2023-11-22T11:28:27;5.50;99.90
75262;DHT22;63859;51.064;4.580;2023-11-22T11:31:06;5.40;99.90
75262;DHT22;63859;51.064;4.580;2023-11-22T11:33:33;5.40;99.90
75262;DHT22;63859;51.064;4.580;2023-11-22T11:36:01;5.50;99.90
75262;DHT22;63859;51.064;4.580;2023-11-22T11:38:34;5.50;99.90
75262;DHT22;63859;51.064;4.580;2023-11-22T11:41:10;5.60;99.90
75262;DHT22;63859;51.064;4.580;2023-11-22T11:43:43;5.60;99.90
75262;DHT22;63859;51.064;4.580;2023-11-22T11:46:12;5.60;99.90
75262;DHT22;63859;51.064;4.580;2023-11-22T11:48:43;5.70;99.90
75262;DHT22;63859;51.064;4.580;2023-11-22T11:51:09;5.70;99.90
75262;DHT22;63859;51.064;4.580;2023-11-22T11:53:34;5.70;99.90
75262;DHT22;63859;51.064;4.580;2023-11-22T11:56:01;5.80;99.90
75262;DHT22;63859;51.064;4.580;2023-11-22T11:58:27;5.80;99.90
75262;DHT22;63859;51.064;4.580;2023-11-22T12:00:54;5.90;99.90
75262;DHT22;63859;51.064;4.580;2023-11-22T12:03:20;6.00;99.90
75262;DHT22;63859;51.064;4.580;2023-11-22T12:05:47;5.90;99.90
75262;DHT22;63859;51.064;4.580;2023-11-22T12:08:14;6.00;99.90
75262;DHT22;63859;51.064;4.580;2023-11-22T12:10:41;6.00;99.90
75262;DHT22;63859;51.064;4.580;2023-11-22T12:13:07;6.00;99.90
75262;DHT22;63859;51.064;4.580;2023-11-22T12:15:34;6.00;99.90
75262;DHT22;63859;51.064;4.580;2023-11-22T12:18:03;6.00;99.90
75262;DHT22;63859;51.064;4.580;2023-11-22T12:20:29;6.00;99.90
75262;DHT22;63859;51.064;4.580;2023-11-22T12:23:00;6.10;99.90
75262;DHT22;63859;51.064;4.580;2023-11-22T12:25:29;6.10;99.90
75262;DHT22;63859;51.064;4.580;2023-11-22T12:27:56;6.00;99.90
75262;DHT22;63859;51.064;4.580;2023-11-22T12:30:32;6.10;99.90
75262;DHT22;63859;51.064;4.580;2023-11-22T12:33:05;6.10;99.90
75262;DHT22;63859;51.064;4.580;2023-11-22T12:35:35;6.10;99.90
75262;DHT22;63859;51.064;4.580;2023-11-22T12:38:02;6.10;99.90
75262;DHT22;63859;51.064;4.580;2023-11-22T12:40:31;6.10;99.90
75262;DHT22;63859;51.064;4.580;2023-11-22T12:42:57;6.20;99.90
75262;DHT22;63859;51.064;4.580;2023-11-22T12:45:24;6.20;99.90
75262;DHT22;63859;51.064;4.580;2023-11-22T12:47:51;6.30;99.90
75262;DHT22;63859;51.064;4.580;2023-11-22T12:50:33;6.40;99.90
75262;DHT22;63859;51.064;4.580;2023-11-22T12:53:14;6.50;99.90
75262;DHT22;63859;51.064;4.580;2023-11-22T12:55:47;6.40;99.90
75262;DHT22;63859;51.064;4.580;2023-11-22T12:58:19;6.40;99.90
75262;DHT22;63859;51.064;4.580;2023-11-22T13:00:46;6.50;99.90
75262;DHT22;63859;51.064;4.580;2023-11-22T13:03:12;6.60;99.90
75262;DHT22;63859;51.064;4.580;2023-11-22T13:05:39;6.70;99.90
75262;DHT22;63859;51.064;4.580;2023-11-22T13:08:05;6.80;99.90
75262;DHT22;63859;51.064;4.580;2023-11-22T13:10:31;6.80;99.90
75262;DHT22;63859;51.064;4.580;2023-11-22T13:12:57;6.80;99.90
75262;DHT22;63859;51.064;4.580;2023-11-22T13:15:24;6.80;99.90
75262;DHT22;63859;51.064;4.580;2023-11-22T13:17:52;6.90;99.90
75262;DHT22;63859;51.064;4.580;2023-11-22T13:20:21;7.00;99.90
75262;DHT22;63859;51.064;4.580;2023-11-22T13:22:48;7.20;99.90
75262;DHT22;63859;51.064;4.580;2023-11-22T13:25:14;7.40;99.90
75262;DHT22;63859;51.064;4.580;2023-11-22T13:27:48;7.40;99.90
75262;DHT22;63859;51.064;4.580;2023-11-22T13:30:17;7.40;99.90
75262;DHT22;63859;51.064;4.580;2023-11-22T13:32:46;7.60;99.90
75262;DHT22;63859;51.064;4.580;2023-11-22T13:35:12;7.80;99.90
75262;DHT22;63859;51.064;4.580;2023-11-22T13:37:43;8.00;99.90
75262;DHT22;63859;51.064;4.580;2023-11-22T13:40:14;8.10;99.90
75262;DHT22;63859;51.064;4.580;2023-11-22T13:42:42;7.90;99.90
75262;DHT22;63859;51.064;4.580;2023-11-22T13:45:09;7.80;99.90
75262;DHT22;63859;51.064;4.580;2023-11-22T13:47:35;7.60;99.90
75262;DHT22;63859;51.064;4.580;2023-11-22T13:50:01;7.40;99.90
75262;DHT22;63859;51.064;4.580;2023-11-22T13:52:26;7.30;99.90
75262;DHT22;63859;51.064;4.580;2023-11-22T13:54:52;7.20;99.90
75262;DHT22;63859;51.064;4.580;2023-11-22T13:57:21;7.10;99.90
75262;DHT22;63859;51.064;4.580;2023-11-22T13:59:47;7.10;99.90
75262;DHT22;63859;51.064;4.580;2023-11-22T14:02:13;7.10;99.90
75262;DHT22;63859;51.064;4.580;2023-11-22T14:04:38;7.20;99.90
75262;DHT22;63859;51.064;4.580;2023-11-22T14:07:05;7.30;99.90
75262;DHT22;63859;51.064;4.580;2023-11-22T14:09:32;7.40;99.90
75262;DHT22;63859;51.064;4.580;2023-11-22T14:12:02;7.50;99.90
75262;DHT22;63859;51.064;4.580;2023-11-22T14:14:28;7.50;99.90
75262;DHT22;63859;51.064;4.580;2023-11-22T14:16:53;7.50;99.90
75262;DHT22;63859;51.064;4.580;2023-11-22T14:19:19;7.50;99.90
75262;DHT22;63859;51.064;4.580;2023-11-22T14:21:44;7.50;99.90
75262;DHT22;63859;51.064;4.580;2023-11-22T14:24:10;7.40;99.90
75262;DHT22;63859;51.064;4.580;2023-11-22T14:26:37;7.30;99.90
75262;DHT22;63859;51.064;4.580;2023-11-22T14:29:03;7.30;99.90
75262;DHT22;63859;51.064;4.580;2023-11-22T14:31:31;7.30;99.90
75262;DHT22;63859;51.064;4.580;2023-11-22T14:33:56;7.30;99.90
75262;DHT22;63859;51.064;4.580;2023-11-22T14:36:23;7.30;99.90
75262;DHT22;63859;51.064;4.580;2023-11-22T14:38:49;7.30;99.90
75262;DHT22;63859;51.064;4.580;2023-11-22T14:41:20;7.20;99.90
75262;DHT22;63859;51.064;4.580;2023-11-22T14:43:46;7.20;99.90
75262;DHT22;63859;51.064;4.580;2023-11-22T14:46:12;7.20;99.90
75262;DHT22;63859;51.064;4.580;2023-11-22T14:48:38;7.20;99.90
75262;DHT22;63859;51.064;4.580;2023-11-22T14:51:04;7.20;99.90
75262;DHT22;63859;51.064;4.580;2023-11-22T14:53:30;7.20;99.90
75262;DHT22;63859;51.064;4.580;2023-11-22T14:55:56;7.20;99.90
75262;DHT22;63859;51.064;4.580;2023-11-22T14:58:22;7.20;99.90
75262;DHT22;63859;51.064;4.580;2023-11-22T15:00:48;7.10;99.90
75262;DHT22;63859;51.064;4.580;2023-11-22T15:03:14;7.10;99.90
75262;DHT22;63859;51.064;4.580;2023-11-22T15:05:40;7.10;99.90
75262;DHT22;63859;51.064;4.580;2023-11-22T15:08:07;7.10;99.90
75262;DHT22;63859;51.064;4.580;2023-11-22T15:10:33;7.10;99.90
75262;DHT22;63859;51.064;4.580;2023-11-22T15:12:58;7.10;99.90
75262;DHT22;63859;51.064;4.580;2023-11-22T15:15:25;7.10;99.90
75262;DHT22;63859;51.064;4.580;2023-11-22T15:17:51;7.20;99.90
75262;DHT22;63859;51.064;4.580;2023-11-22T15:20:16;7.10;99.90
75262;DHT22;63859;51.064;4.580;2023-11-22T15:22:42;7.10;99.90
75262;DHT22;63859;51.064;4.580;2023-11-22T15:25:08;7.10;99.90
75262;DHT22;63859;51.064;4.580;2023-11-22T15:27:35;7.10;99.90
75262;DHT22;63859;51.064;4.580;2023-11-22T15:30:01;7.10;99.90
75262;DHT22;63859;51.064;4.580;2023-11-22T15:32:28;7.10;99.90
75262;DHT22;63859;51.064;4.580;2023-11-22T15:34:54;7.10;99.90
75262;DHT22;63859;51.064;4.580;2023-11-22T15:37:20;7.10;99.90
75262;DHT22;63859;51.064;4.580;2023-11-22T15:39:45;7.10;99.90
75262;DHT22;63859;51.064;4.580;2023-11-22T15:42:11;7.00;99.90
75262;DHT22;63859;51.064;4.580;2023-11-22T15:44:37;7.00;99.90